sensor_id;sensor_type;location;lat;lon;timestamp;pressure;altitude;pressure_sealevel;temperature;humidity
26697;BME280;14312;52.614;13.496;2024-01-30T00:00:01;102256.66;;;5.82;55.93
26697;BME280;14312;52.614;13.496;2024-01-30T00:02:47;102258.78;;;5.87;56.17
26697;BME280;14312;52.614;13.496;2024-01-30T00:05:33;102256.66;;;5.82;55.88
26697;BME280;14312;52.614;13.496;2024-01-30T00:08:19;102271.03;;;5.80;55.90
26697;BME280;14312;52.614;13.496;2024-01-30T00:11:07;102264.91;;;5.79;55.83
26697;BME280;14312;52.614;13.496;2024-01-30T00:13:54;102269.22;;;5.72;55.96
26697;BME280;14312;52.614;13.496;2024-01-30T00:16:42;102269.53;;;5.69;55.83
26697;BME280;14312;52.614;13.496;2024-01-30T00:19:28;102273.53;;;5.65;56.21
26697;BME280;14312;52.614;13.496;2024-01-30T00:22:14;102279.13;;;5.62;55.98
26697;BME280;14312;52.614;13.496;2024-01-30T00:25:00;102271.72;;;5.58;56.05
26697;BME280;14312;52.614;13.496;2024-01-30T00:27:46;102277.50;;;5.53;56.14
26697;BME280;14312;52.614;13.496;2024-01-30T00:30:32;102272.69;;;5.48;56.39
26697;BME280;14312;52.614;13.496;2024-01-30T00:33:18;102266.09;;;5.44;56.11
26697;BME280;14312;52.614;13.496;2024-01-30T00:36:08;102268.91;;;5.43;56.39
26697;BME280;14312;52.614;13.496;2024-01-30T00:38:55;102269.25;;;5.40;56.39
26697;BME280;14312;52.614;13.496;2024-01-30T00:41:41;102263.00;;;5.33;56.32
26697;BME280;14312;52.614;13.496;2024-01-30T00:44:27;102263.78;;;5.33;56.45
26697;BME280;14312;52.614;13.496;2024-01-30T00:47:13;102265.13;;;5.29;56.65
26697;BME280;14312;52.614;13.496;2024-01-30T00:50:00;102279.00;;;5.31;56.40
26697;BME280;14312;52.614;13.496;2024-01-30T00:52:46;102262.31;;;5.23;56.42
26697;BME280;14312;52.614;13.496;2024-01-30T00:55:32;102263.13;;;5.23;56.43
26697;BME280;14312;52.614;13.496;2024-01-30T00:58:18;102258.34;;;5.10;56.67
26697;BME280;14312;52.614;13.496;2024-01-30T01:01:05;102258.34;;;5.10;56.56
26697;BME280;14312;52.614;13.496;2024-01-30T01:03:53;102263.63;;;5.10;56.53
26697;BME280;14312;52.614;13.496;2024-01-30T01:06:39;102259.81;;;5.05;56.60
26697;BME280;14312;52.614;13.496;2024-01-30T01:09:28;102249.56;;;5.02;56.49
26697;BME280;14312;52.614;13.496;2024-01-30T01:12:14;102249.72;;;4.92;56.49
26697;BME280;14312;52.614;13.496;2024-01-30T01:15:01;102271.38;;;4.96;56.69
26697;BME280;14312;52.614;13.496;2024-01-30T01:17:48;102263.91;;;4.91;56.51
26697;BME280;14312;52.614;13.496;2024-01-30T01:20:34;102267.88;;;4.87;56.74
26697;BME280;14312;52.614;13.496;2024-01-30T01:23:21;102261.59;;;4.80;56.66
26697;BME280;14312;52.614;13.496;2024-01-30T01:26:08;102263.56;;;4.78;56.61
26697;BME280;14312;52.614;13.496;2024-01-30T01:28:55;102265.38;;;4.78;56.87
26697;BME280;14312;52.614;13.496;2024-01-30T01:31:41;102259.44;;;4.76;56.90
26697;BME280;14312;52.614;13.496;2024-01-30T01:34:31;102265.19;;;4.71;56.81
26697;BME280;14312;52.614;13.496;2024-01-30T01:37:18;102250.31;;;4.62;56.94
26697;BME280;14312;52.614;13.496;2024-01-30T01:40:04;102257.91;;;4.65;57.27
26697;BME280;14312;52.614;13.496;2024-01-30T01:42:51;102256.91;;;4.58;56.97
26697;BME280;14312;52.614;13.496;2024-01-30T01:45:40;102242.84;;;4.49;57.35
26697;BME280;14312;52.614;13.496;2024-01-30T01:48:26;102245.19;;;4.52;57.30
26697;BME280;14312;52.614;13.496;2024-01-30T01:51:13;102254.25;;;4.50;57.33
26697;BME280;14312;52.614;13.496;2024-01-30T01:54:03;102251.59;;;4.50;57.51
26697;BME280;14312;52.614;13.496;2024-01-30T01:56:50;102253.41;;;4.49;57.43
26697;BME280;14312;52.614;13.496;2024-01-30T01:59:37;102236.06;;;4.39;57.27
26697;BME280;14312;52.614;13.496;2024-01-30T02:02:24;102251.09;;;4.46;57.39
26697;BME280;14312;52.614;13.496;2024-01-30T02:05:11;102262.66;;;4.45;57.42
26697;BME280;14312;52.614;13.496;2024-01-30T02:07:58;102251.91;;;4.39;57.33
26697;BME280;14312;52.614;13.496;2024-01-30T02:10:44;102254.38;;;4.40;57.56
26697;BME280;14312;52.614;13.496;2024-01-30T02:13:30;102258.00;;;4.39;57.53
26697;BME280;14312;52.614;13.496;2024-01-30T02:16:17;102247.59;;;4.38;57.57
26697;BME280;14312;52.614;13.496;2024-01-30T02:19:03;102265.59;;;4.42;57.58
26697;BME280;14312;52.614;13.496;2024-01-30T02:21:49;102259.81;;;4.39;57.75
26697;BME280;14312;52.614;13.496;2024-01-30T02:24:36;102251.22;;;4.37;57.54
26697;BME280;14312;52.614;13.496;2024-01-30T02:27:22;102258.84;;;4.40;57.61
26697;BME280;14312;52.614;13.496;2024-01-30T02:30:08;102250.56;;;4.34;57.85
26697;BME280;14312;52.614;13.496;2024-01-30T02:32:54;102257.47;;;4.36;57.60
26697;BME280;14312;52.614;13.496;2024-01-30T02:35:41;102252.22;;;4.36;58.00
26697;BME280;14312;52.614;13.496;2024-01-30T02:38:28;102247.25;;;4.32;57.85
26697;BME280;14312;52.614;13.496;2024-01-30T02:41:14;102255.53;;;4.38;58.08
26697;BME280;14312;52.614;13.496;2024-01-30T02:44:01;102251.22;;;4.37;57.90
26697;BME280;14312;52.614;13.496;2024-01-30T02:46:47;102234.72;;;4.34;57.88
26697;BME280;14312;52.614;13.496;2024-01-30T02:49:33;102249.91;;;4.41;57.91
26697;BME280;14312;52.614;13.496;2024-01-30T02:52:19;102240.00;;;4.34;58.03
26697;BME280;14312;52.614;13.496;2024-01-30T02:55:06;102249.91;;;4.41;57.95
26697;BME280;14312;52.614;13.496;2024-01-30T02:57:52;102231.75;;;4.29;58.42
26697;BME280;14312;52.614;13.496;2024-01-30T03:00:38;102243.00;;;4.40;58.66
26697;BME280;14312;52.614;13.496;2024-01-30T03:03:24;102244.31;;;4.44;58.89
26697;BME280;14312;52.614;13.496;2024-01-30T03:06:11;102234.91;;;4.41;59.09
26697;BME280;14312;52.614;13.496;2024-01-30T03:08:57;102249.28;;;4.47;59.10
26697;BME280;14312;52.614;13.496;2024-01-30T03:11:43;102224.34;;;4.41;59.04
26697;BME280;14312;52.614;13.496;2024-01-30T03:14:31;102234.78;;;4.51;59.20
26697;BME280;14312;52.614;13.496;2024-01-30T03:17:17;102230.81;;;4.47;58.97
26697;BME280;14312;52.614;13.496;2024-01-30T03:20:04;102236.44;;;4.52;59.04
26697;BME280;14312;52.614;13.496;2024-01-30T03:22:55;102220.06;;;4.48;59.16
26697;BME280;14312;52.614;13.496;2024-01-30T03:25:41;102231.50;;;4.57;59.02
26697;BME280;14312;52.614;13.496;2024-01-30T03:28:27;102221.59;;;4.51;58.92
26697;BME280;14312;52.614;13.496;2024-01-30T03:31:15;102234.66;;;4.60;59.38
26697;BME280;14312;52.614;13.496;2024-01-30T03:34:02;102225.56;;;4.63;59.00
26697;BME280;14312;52.614;13.496;2024-01-30T03:36:48;102215.66;;;4.57;59.02
26697;BME280;14312;52.614;13.496;2024-01-30T03:39:34;102223.91;;;4.62;59.16
26697;BME280;14312;52.614;13.496;2024-01-30T03:42:21;102229.84;;;4.64;58.83
26697;BME280;14312;52.614;13.496;2024-01-30T03:45:08;102230.38;;;4.67;58.98
26697;BME280;14312;52.614;13.496;2024-01-30T03:47:54;102222.09;;;4.62;59.17
26697;BME280;14312;52.614;13.496;2024-01-30T03:50:40;102222.94;;;4.63;59.05
26697;BME280;14312;52.614;13.496;2024-01-30T03:53:26;102232.84;;;4.69;59.09
26697;BME280;14312;52.614;13.496;2024-01-30T03:56:13;102220.97;;;4.65;58.95
26697;BME280;14312;52.614;13.496;2024-01-30T03:58:57;102219.31;;;4.64;59.10
26697;BME280;14312;52.614;13.496;2024-01-30T04:01:46;102218.31;;;4.65;59.28
26697;BME280;14312;52.614;13.496;2024-01-30T04:04:32;102216.00;;;4.62;59.31
26697;BME280;14312;52.614;13.496;2024-01-30T04:07:18;102216.66;;;4.64;59.59
26697;BME280;14312;52.614;13.496;2024-01-30T04:10:05;102206.09;;;4.64;59.43
26697;BME280;14312;52.614;13.496;2024-01-30T04:12:53;102218.31;;;4.65;59.65
26697;BME280;14312;52.614;13.496;2024-01-30T04:15:40;102222.28;;;4.69;59.56
26697;BME280;14312;52.614;13.496;2024-01-30T04:18:26;102224.75;;;4.70;59.44
26697;BME280;14312;52.614;13.496;2024-01-30T04:21:12;102218.16;;;4.66;59.45
26697;BME280;14312;52.614;13.496;2024-01-30T04:23:58;102230.72;;;4.72;59.61
26697;BME280;14312;52.614;13.496;2024-01-30T04:26:44;102224.91;;;4.69;59.35
26697;BME280;14312;52.614;13.496;2024-01-30T04:29:30;102229.88;;;4.72;59.22
26697;BME280;14312;52.614;13.496;2024-01-30T04:32:18;102231.53;;;4.73;59.61
26697;BME280;14312;52.614;13.496;2024-01-30T04:35:04;102238.31;;;4.76;59.31
26697;BME280;14312;52.614;13.496;2024-01-30T04:37:54;102207.75;;;4.65;59.42
26697;BME280;14312;52.614;13.496;2024-01-30T04:40:40;102208.44;;;4.67;59.43
26697;BME280;14312;52.614;13.496;2024-01-30T04:43:26;102205.25;;;4.55;59.41
26697;BME280;14312;52.614;13.496;2024-01-30T04:46:13;102213.38;;;4.70;59.29
26697;BME280;14312;52.614;13.496;2024-01-30T04:48:59;102218.00;;;4.68;59.46
26697;BME280;14312;52.614;13.496;2024-01-30T04:51:46;102214.38;;;4.61;59.19
26697;BME280;14312;52.614;13.496;2024-01-30T04:54:32;102202.13;;;4.52;58.98
26697;BME280;14312;52.614;13.496;2024-01-30T04:57:19;102217.00;;;4.61;59.51
26697;BME280;14312;52.614;13.496;2024-01-30T05:00:05;102215.66;;;4.57;59.27
26697;BME280;14312;52.614;13.496;2024-01-30T05:02:52;102205.06;;;4.49;59.37
26697;BME280;14312;52.614;13.496;2024-01-30T05:05:39;102199.78;;;4.49;59.49
26697;BME280;14312;52.614;13.496;2024-01-30T05:08:25;102208.06;;;4.46;59.48
26697;BME280;14312;52.614;13.496;2024-01-30T05:11:11;102203.09;;;4.43;59.19
26697;BME280;14312;52.614;13.496;2024-01-30T05:13:58;102189.41;;;4.39;59.35
26697;BME280;14312;52.614;13.496;2024-01-30T05:16:44;102200.28;;;4.44;59.71
26697;BME280;14312;52.614;13.496;2024-01-30T05:19:33;102204.91;;;4.42;59.70
26697;BME280;14312;52.614;13.496;2024-01-30T05:22:19;102196.16;;;4.42;59.44
26697;BME280;14312;52.614;13.496;2024-01-30T05:25:05;102202.75;;;4.38;59.96
26697;BME280;14312;52.614;13.496;2024-01-30T05:27:52;102199.13;;;4.39;59.23
26697;BME280;14312;52.614;13.496;2024-01-30T05:30:38;102207.69;;;4.41;60.04
26697;BME280;14312;52.614;13.496;2024-01-30T05:33:24;102203.22;;;4.41;60.34
26697;BME280;14312;52.614;13.496;2024-01-30T05:36:14;102194.84;;;4.38;60.64
26697;BME280;14312;52.614;13.496;2024-01-30T05:39:00;102187.22;;;4.34;60.20
26697;BME280;14312;52.614;13.496;2024-01-30T05:41:47;102195.81;;;4.37;60.48
26697;BME280;14312;52.614;13.496;2024-01-30T05:44:40;102214.31;;;4.45;60.73
26697;BME280;14312;52.614;13.496;2024-01-30T05:47:28;102201.75;;;4.39;60.29
26697;BME280;14312;52.614;13.496;2024-01-30T05:50:15;102202.75;;;4.38;60.51
26697;BME280;14312;52.614;13.496;2024-01-30T05:53:01;102186.72;;;4.31;60.44
26697;BME280;14312;52.614;13.496;2024-01-30T05:55:47;102179.13;;;4.28;60.59
26697;BME280;14312;52.614;13.496;2024-01-30T05:58:33;102209.34;;;4.42;60.47
26697;BME280;14312;52.614;13.496;2024-01-30T06:01:19;102200.59;;;4.41;60.73
26697;BME280;14312;52.614;13.496;2024-01-30T06:04:06;102204.59;;;4.45;60.50
26697;BME280;14312;52.614;13.496;2024-01-30T06:06:52;102185.56;;;4.33;60.77
26697;BME280;14312;52.614;13.496;2024-01-30T06:09:38;102197.47;;;4.38;60.59
26697;BME280;14312;52.614;13.496;2024-01-30T06:12:24;102205.72;;;4.43;60.67
26697;BME280;14312;52.614;13.496;2024-01-30T06:15:10;102200.28;;;4.44;60.29
26697;BME280;14312;52.614;13.496;2024-01-30T06:17:58;102196.63;;;4.37;60.53
26697;BME280;14312;52.614;13.496;2024-01-30T06:20:45;102200.44;;;4.43;60.39
26697;BME280;14312;52.614;13.496;2024-01-30T06:23:31;102195.13;;;4.34;60.39
26697;BME280;14312;52.614;13.496;2024-01-30T06:26:17;102193.84;;;4.39;60.38
26697;BME280;14312;52.614;13.496;2024-01-30T06:29:04;102192.84;;;4.31;60.24
26697;BME280;14312;52.614;13.496;2024-01-30T06:31:50;102191.50;;;4.36;60.57
26697;BME280;14312;52.614;13.496;2024-01-30T06:34:36;102193.16;;;4.37;60.69
26697;BME280;14312;52.614;13.496;2024-01-30T06:37:24;102193.03;;;4.38;60.65
26697;BME280;14312;52.614;13.496;2024-01-30T06:40:11;102203.41;;;4.40;60.48
26697;BME280;14312;52.614;13.496;2024-01-30T06:42:57;102202.41;;;4.41;60.76
26697;BME280;14312;52.614;13.496;2024-01-30T06:45:43;102198.28;;;4.38;60.58
26697;BME280;14312;52.614;13.496;2024-01-30T06:48:30;102196.50;;;4.39;60.63
26697;BME280;14312;52.614;13.496;2024-01-30T06:51:16;102198.75;;;4.33;60.29
26697;BME280;14312;52.614;13.496;2024-01-30T06:54:02;102201.75;;;4.39;60.41
26697;BME280;14312;52.614;13.496;2024-01-30T06:56:48;102194.50;;;4.32;60.56
26697;BME280;14312;52.614;13.496;2024-01-30T06:59:35;102204.03;;;4.33;60.72
26697;BME280;14312;52.614;13.496;2024-01-30T07:02:23;102189.84;;;4.26;60.55
26697;BME280;14312;52.614;13.496;2024-01-30T07:05:09;102205.19;;;4.31;60.58
26697;BME280;14312;52.614;13.496;2024-01-30T07:07:55;102196.47;;;4.30;60.62
26697;BME280;14312;52.614;13.496;2024-01-30T07:10:41;102197.75;;;4.26;60.46
26697;BME280;14312;52.614;13.496;2024-01-30T07:13:28;102203.06;;;4.34;60.72
26697;BME280;14312;52.614;13.496;2024-01-30T07:16:15;102186.19;;;4.19;60.60
26697;BME280;14312;52.614;13.496;2024-01-30T07:19:01;102201.09;;;4.37;60.76
26697;BME280;14312;52.614;13.496;2024-01-30T07:21:48;102210.00;;;4.36;61.01
26697;BME280;14312;52.614;13.496;2024-01-30T07:24:35;102196.94;;;4.34;61.09
26697;BME280;14312;52.614;13.496;2024-01-30T07:27:21;102193.84;;;4.39;61.04
26697;BME280;14312;52.614;13.496;2024-01-30T07:30:07;102195.50;;;4.40;61.32
26697;BME280;14312;52.614;13.496;2024-01-30T07:32:53;102198.66;;;4.51;61.37
26697;BME280;14312;52.614;13.496;2024-01-30T07:35:40;102182.00;;;4.51;61.11
26697;BME280;14312;52.614;13.496;2024-01-30T07:38:26;102180.84;;;4.53;60.96
26697;BME280;14312;52.614;13.496;2024-01-30T07:41:12;102165.84;;;4.54;61.37
26697;BME280;14312;52.614;13.496;2024-01-30T07:43:59;102196.53;;;4.71;61.16
26697;BME280;14312;52.614;13.496;2024-01-30T07:46:45;102182.50;;;4.70;61.37
26697;BME280;14312;52.614;13.496;2024-01-30T07:49:32;102175.94;;;4.75;61.17
26697;BME280;14312;52.614;13.496;2024-01-30T07:52:18;102176.44;;;4.86;61.14
26697;BME280;14312;52.614;13.496;2024-01-30T07:55:05;102181.41;;;4.89;61.49
26697;BME280;14312;52.614;13.496;2024-01-30T07:57:54;102167.53;;;4.87;61.34
26697;BME280;14312;52.614;13.496;2024-01-30T08:00:40;102181.38;;;4.97;61.35
26697;BME280;14312;52.614;13.496;2024-01-30T08:03:27;102186.34;;;5.08;61.54
26697;BME280;14312;52.614;13.496;2024-01-30T08:06:13;102164.84;;;5.11;61.69
26697;BME280;14312;52.614;13.496;2024-01-30T08:09:00;102174.78;;;5.18;61.62
26697;BME280;14312;52.614;13.496;2024-01-30T08:11:46;102155.94;;;5.12;62.09
26697;BME280;14312;52.614;13.496;2024-01-30T08:14:32;102164.84;;;5.20;61.93
26697;BME280;14312;52.614;13.496;2024-01-30T08:17:18;102179.72;;;5.37;61.84
26697;BME280;14312;52.614;13.496;2024-01-30T08:20:05;102189.63;;;5.43;62.25
26697;BME280;14312;52.614;13.496;2024-01-30T08:22:53;102162.88;;;5.38;62.14
26697;BME280;14312;52.614;13.496;2024-01-30T08:25:39;102178.72;;;5.46;62.08
26697;BME280;14312;52.614;13.496;2024-01-30T08:28:28;102163.16;;;5.51;62.23
26697;BME280;14312;52.614;13.496;2024-01-30T08:31:14;102168.09;;;5.62;62.44
26697;BME280;14312;52.614;13.496;2024-01-30T08:34:01;102170.38;;;5.73;62.26
26697;BME280;14312;52.614;13.496;2024-01-30T08:36:47;102152.88;;;5.72;62.23
26697;BME280;14312;52.614;13.496;2024-01-30T08:39:34;102175.66;;;5.89;62.41
26697;BME280;14312;52.614;13.496;2024-01-30T08:42:20;102168.53;;;5.90;62.06
26697;BME280;14312;52.614;13.496;2024-01-30T08:45:08;102156.44;;;5.96;62.19
26697;BME280;14312;52.614;13.496;2024-01-30T08:47:56;102159.41;;;6.01;62.26
26697;BME280;14312;52.614;13.496;2024-01-30T08:50:42;102174.53;;;6.15;61.95
26697;BME280;14312;52.614;13.496;2024-01-30T08:53:28;102163.78;;;6.16;62.13
26697;BME280;14312;52.614;13.496;2024-01-30T08:56:15;102149.03;;;6.22;62.01
26697;BME280;14312;52.614;13.496;2024-01-30T08:59:02;102154.94;;;6.32;61.91
26697;BME280;14312;52.614;13.496;2024-01-30T09:01:49;102163.66;;;6.41;61.79
26697;BME280;14312;52.614;13.496;2024-01-30T09:04:39;102172.38;;;6.49;62.14
26697;BME280;14312;52.614;13.496;2024-01-30T09:07:25;102159.78;;;6.51;62.07
26697;BME280;14312;52.614;13.496;2024-01-30T09:10:11;102160.47;;;6.68;62.10
26697;BME280;14312;52.614;13.496;2024-01-30T09:12:58;102160.25;;;6.78;62.16
26697;BME280;14312;52.614;13.496;2024-01-30T09:15:44;102165.06;;;6.97;62.22
26697;BME280;14312;52.614;13.496;2024-01-30T09:18:30;102157.06;;;7.05;62.28
26697;BME280;14312;52.614;13.496;2024-01-30T09:21:17;102161.88;;;7.24;62.15
26697;BME280;14312;52.614;13.496;2024-01-30T09:24:03;102174.59;;;7.43;61.84
26697;BME280;14312;52.614;13.496;2024-01-30T09:26:52;102170.47;;;7.56;61.75
26697;BME280;14312;52.614;13.496;2024-01-30T09:29:39;102168.47;;;7.58;61.11
26697;BME280;14312;52.614;13.496;2024-01-30T09:32:25;102166.19;;;7.69;61.42
26697;BME280;14312;52.614;13.496;2024-01-30T09:35:11;102147.44;;;7.71;61.29
26697;BME280;14312;52.614;13.496;2024-01-30T09:37:57;102151.25;;;7.83;61.25
26697;BME280;14312;52.614;13.496;2024-01-30T09:40:44;102170.66;;;7.98;60.87
26697;BME280;14312;52.614;13.496;2024-01-30T09:43:34;102160.31;;;8.03;60.74
26697;BME280;14312;52.614;13.496;2024-01-30T09:46:23;102162.59;;;8.06;60.66
26697;BME280;14312;52.614;13.496;2024-01-30T09:49:13;102152.88;;;8.13;60.15
26697;BME280;14312;52.614;13.496;2024-01-30T09:52:00;102150.94;;;8.22;59.53
26697;BME280;14312;52.614;13.496;2024-01-30T09:54:49;102137.09;;;8.26;58.57
26697;BME280;14312;52.614;13.496;2024-01-30T09:57:37;102145.72;;;8.29;58.90
26697;BME280;14312;52.614;13.496;2024-01-30T10:00:23;102140.56;;;8.42;58.33
26697;BME280;14312;52.614;13.496;2024-01-30T10:03:13;102143.47;;;8.47;58.29
26697;BME280;14312;52.614;13.496;2024-01-30T10:06:01;102140.34;;;8.58;58.11
26697;BME280;14312;52.614;13.496;2024-01-30T10:08:47;102139.25;;;8.74;57.85
26697;BME280;14312;52.614;13.496;2024-01-30T10:11:33;102132.34;;;8.79;57.05
26697;BME280;14312;52.614;13.496;2024-01-30T10:14:20;102137.72;;;8.86;57.42
26697;BME280;14312;52.614;13.496;2024-01-30T10:17:10;102134.59;;;9.03;55.92
26697;BME280;14312;52.614;13.496;2024-01-30T10:19:56;102135.88;;;9.08;56.23
26697;BME280;14312;52.614;13.496;2024-01-30T10:22:42;102116.63;;;9.06;56.33
26697;BME280;14312;52.614;13.496;2024-01-30T10:25:32;102124.50;;;9.20;55.28
26697;BME280;14312;52.614;13.496;2024-01-30T10:28:18;102117.56;;;9.26;55.47
26697;BME280;14312;52.614;13.496;2024-01-30T10:31:04;102113.13;;;9.33;54.56
26697;BME280;14312;52.614;13.496;2024-01-30T10:33:50;102118.50;;;9.46;53.93
26697;BME280;14312;52.614;13.496;2024-01-30T10:36:40;102118.13;;;9.49;53.78
26697;BME280;14312;52.614;13.496;2024-01-30T10:39:29;102107.09;;;9.52;53.66
26697;BME280;14312;52.614;13.496;2024-01-30T10:42:20;102125.19;;;9.63;53.13
26697;BME280;14312;52.614;13.496;2024-01-30T10:45:11;102129.72;;;9.69;53.34
26697;BME280;14312;52.614;13.496;2024-01-30T10:48:04;102099.56;;;9.62;53.78
26697;BME280;14312;52.614;13.496;2024-01-30T10:50:51;102107.22;;;9.72;53.69
26697;BME280;14312;52.614;13.496;2024-01-30T10:53:41;102130.63;;;9.90;53.12
26697;BME280;14312;52.614;13.496;2024-01-30T10:56:27;102113.00;;;9.89;53.35
26697;BME280;14312;52.614;13.496;2024-01-30T10:59:14;102112.81;;;9.97;53.12
26697;BME280;14312;52.614;13.496;2024-01-30T11:02:01;102120.84;;;10.10;52.37
26697;BME280;14312;52.614;13.496;2024-01-30T11:04:48;102102.84;;;10.12;52.13
26697;BME280;14312;52.614;13.496;2024-01-30T11:07:34;102101.88;;;10.19;52.36
26697;BME280;14312;52.614;13.496;2024-01-30T11:10:20;102093.91;;;10.26;51.52
26697;BME280;14312;52.614;13.496;2024-01-30T11:13:10;102110.72;;;10.40;52.08
26697;BME280;14312;52.614;13.496;2024-01-30T11:16:03;102103.75;;;10.45;51.67
26697;BME280;14312;52.614;13.496;2024-01-30T11:18:50;102088.19;;;10.42;52.18
26697;BME280;14312;52.614;13.496;2024-01-30T11:21:43;102111.19;;;10.63;51.71
26697;BME280;14312;52.614;13.496;2024-01-30T11:24:38;102110.97;;;10.65;51.33
26697;BME280;14312;52.614;13.496;2024-01-30T11:27:26;102095.38;;;10.75;50.36
26697;BME280;14312;52.614;13.496;2024-01-30T11:30:26;102091.69;;;10.76;50.84
26697;BME280;14312;52.614;13.496;2024-01-30T11:33:13;102089.03;;;10.82;50.67
26697;BME280;14312;52.614;13.496;2024-01-30T11:36:00;102080.44;;;10.87;50.16
26697;BME280;14312;52.614;13.496;2024-01-30T11:38:48;102080.19;;;10.95;50.09
26697;BME280;14312;52.614;13.496;2024-01-30T11:41:34;102087.41;;;11.01;50.20
26697;BME280;14312;52.614;13.496;2024-01-30T11:44:23;102087.78;;;11.11;50.16
26697;BME280;14312;52.614;13.496;2024-01-30T11:47:09;102104.78;;;11.23;48.96
26697;BME280;14312;52.614;13.496;2024-01-30T11:49:56;102089.84;;;11.22;48.71
26697;BME280;14312;52.614;13.496;2024-01-30T11:52:42;102094.34;;;11.22;49.40
26697;BME280;14312;52.614;13.496;2024-01-30T11:55:32;102096.38;;;11.26;49.35
26697;BME280;14312;52.614;13.496;2024-01-30T11:58:18;102092.88;;;11.32;49.65
26697;BME280;14312;52.614;13.496;2024-01-30T12:01:04;102077.03;;;11.37;49.21
26697;BME280;14312;52.614;13.496;2024-01-30T12:03:51;102073.75;;;11.42;48.93
26697;BME280;14312;52.614;13.496;2024-01-30T12:06:37;102066.59;;;11.43;48.81
26697;BME280;14312;52.614;13.496;2024-01-30T12:09:24;102065.13;;;11.47;49.01
26697;BME280;14312;52.614;13.496;2024-01-30T12:12:10;102073.50;;;11.57;48.73
26697;BME280;14312;52.614;13.496;2024-01-30T12:14:58;102061.81;;;11.58;48.05
26697;BME280;14312;52.614;13.496;2024-01-30T12:17:44;102054.38;;;11.60;48.72
26697;BME280;14312;52.614;13.496;2024-01-30T12:20:30;102061.13;;;11.69;48.24
26697;BME280;14312;52.614;13.496;2024-01-30T12:23:16;102048.00;;;11.74;47.75
26697;BME280;14312;52.614;13.496;2024-01-30T12:26:08;102042.81;;;11.72;48.28
26697;BME280;14312;52.614;13.496;2024-01-30T12:28:55;102041.22;;;11.78;47.98
26697;BME280;14312;52.614;13.496;2024-01-30T12:31:43;102038.28;;;11.86;47.83
26697;BME280;14312;52.614;13.496;2024-01-30T12:34:30;102039.41;;;12.03;47.72
26697;BME280;14312;52.614;13.496;2024-01-30T12:37:16;102020.47;;;12.11;47.85
26697;BME280;14312;52.614;13.496;2024-01-30T12:40:08;102027.78;;;12.23;48.26
26697;BME280;14312;52.614;13.496;2024-01-30T12:42:56;102022.72;;;12.39;48.21
26697;BME280;14312;52.614;13.496;2024-01-30T12:45:42;102013.97;;;12.57;47.32
26697;BME280;14312;52.614;13.496;2024-01-30T12:48:28;102011.31;;;12.75;46.68
26697;BME280;14312;52.614;13.496;2024-01-30T12:51:15;102004.09;;;12.76;47.63
26697;BME280;14312;52.614;13.496;2024-01-30T12:54:05;102023.09;;;12.92;46.66
26697;BME280;14312;52.614;13.496;2024-01-30T12:56:51;102020.16;;;12.94;46.73
26697;BME280;14312;52.614;13.496;2024-01-30T12:59:38;102013.19;;;12.93;46.27
26697;BME280;14312;52.614;13.496;2024-01-30T13:02:25;102005.41;;;12.91;47.10
26697;BME280;14312;52.614;13.496;2024-01-30T13:05:12;102010.53;;;13.11;46.86
26697;BME280;14312;52.614;13.496;2024-01-30T13:08:00;102026.13;;;13.21;46.96
26697;BME280;14312;52.614;13.496;2024-01-30T13:10:49;102009.06;;;13.33;46.98
26697;BME280;14312;52.614;13.496;2024-01-30T13:13:35;102017.97;;;13.46;46.75
26697;BME280;14312;52.614;13.496;2024-01-30T13:16:22;102014.09;;;13.60;45.60
26697;BME280;14312;52.614;13.496;2024-01-30T13:19:08;102003.75;;;13.63;45.70
26697;BME280;14312;52.614;13.496;2024-01-30T13:21:54;101992.13;;;13.69;45.12
26697;BME280;14312;52.614;13.496;2024-01-30T13:24:40;102000.41;;;13.68;44.58
26697;BME280;14312;52.614;13.496;2024-01-30T13:27:27;101978.31;;;13.54;44.22
26697;BME280;14312;52.614;13.496;2024-01-30T13:30:13;101980.38;;;13.41;44.63
26697;BME280;14312;52.614;13.496;2024-01-30T13:33:00;101996.22;;;13.24;45.02
26697;BME280;14312;52.614;13.496;2024-01-30T13:35:46;101985.09;;;13.02;45.17
26697;BME280;14312;52.614;13.496;2024-01-30T13:38:33;102009.09;;;12.90;45.98
26697;BME280;14312;52.614;13.496;2024-01-30T13:41:19;101992.44;;;12.70;46.44
26697;BME280;14312;52.614;13.496;2024-01-30T13:44:06;102006.50;;;12.59;46.76
26697;BME280;14312;52.614;13.496;2024-01-30T13:46:53;101996.38;;;12.43;47.13
26697;BME280;14312;52.614;13.496;2024-01-30T13:49:40;101996.03;;;12.33;47.47
26697;BME280;14312;52.614;13.496;2024-01-30T13:52:27;101987.09;;;12.21;48.09
26697;BME280;14312;52.614;13.496;2024-01-30T13:55:13;101996.38;;;12.18;48.07
26697;BME280;14312;52.614;13.496;2024-01-30T13:58:00;101993.53;;;12.13;48.71
26697;BME280;14312;52.614;13.496;2024-01-30T14:00:47;101994.00;;;12.03;48.67
26697;BME280;14312;52.614;13.496;2024-01-30T14:03:35;101996.63;;;12.10;48.47
26697;BME280;14312;52.614;13.496;2024-01-30T14:06:24;101991.31;;;12.03;48.81
26697;BME280;14312;52.614;13.496;2024-01-30T14:09:10;101994.22;;;12.02;48.84
26697;BME280;14312;52.614;13.496;2024-01-30T14:11:57;101991.97;;;11.99;49.03
26697;BME280;14312;52.614;13.496;2024-01-30T14:14:43;101988.50;;;11.98;49.17
26697;BME280;14312;52.614;13.496;2024-01-30T14:17:29;102003.66;;;12.04;49.39
26697;BME280;14312;52.614;13.496;2024-01-30T14:20:18;101997.13;;;12.00;49.34
26697;BME280;14312;52.614;13.496;2024-01-30T14:23:04;101985.88;;;11.92;49.51
26697;BME280;14312;52.614;13.496;2024-01-30T14:25:50;101992.59;;;11.94;49.18
26697;BME280;14312;52.614;13.496;2024-01-30T14:28:37;101984.44;;;11.89;49.69